createdAt,value
2022-10-31T00:01:01.577Z,16.40
2022-10-31T00:03:29.013Z,16.40
2022-10-31T00:05:58.067Z,16.40
2022-10-31T00:08:25.651Z,16.40
2022-10-31T00:10:53.460Z,16.40
2022-10-31T00:15:48.533Z,16.40
2022-10-31T00:18:16.118Z,16.40
2022-10-31T00:20:43.686Z,16.30
2022-10-31T00:23:12.729Z,16.30
2022-10-31T00:25:40.649Z,16.40
2022-10-31T00:28:08.731Z,16.40
2022-10-31T00:30:36.344Z,16.40
2022-10-31T00:33:05.161Z,16.40
2022-10-31T00:35:32.848Z,16.40
2022-10-31T00:38:00.387Z,16.40
2022-10-31T00:40:29.375Z,16.40
2022-10-31T00:42:57.201Z,16.30
2022-10-31T00:45:25.154Z,16.40
2022-10-31T00:47:52.739Z,16.40
2022-10-31T00:50:20.354Z,16.30
2022-10-31T00:52:47.851Z,16.40
2022-10-31T00:55:15.470Z,16.30
2022-10-31T00:57:47.227Z,16.40
2022-10-31T01:00:15.126Z,16.30
2022-10-31T01:02:42.893Z,16.30
2022-10-31T01:05:10.725Z,16.30
2022-10-31T01:07:38.200Z,16.30
2022-10-31T01:10:06.361Z,16.30
2022-10-31T01:12:37.774Z,16.40
2022-10-31T01:15:08.678Z,16.40
2022-10-31T01:17:36.150Z,16.30
2022-10-31T01:20:04.115Z,16.30
2022-10-31T01:22:31.619Z,16.30
2022-10-31T01:24:59.280Z,16.40
2022-10-31T01:27:26.779Z,16.40
2022-10-31T01:29:54.298Z,16.30
2022-10-31T01:32:23.336Z,16.30
2022-10-31T01:34:50.914Z,16.30
2022-10-31T01:37:18.443Z,16.30
2022-10-31T01:39:46.022Z,16.30
2022-10-31T01:42:17.337Z,16.30
2022-10-31T01:45:01.045Z,16.30
2022-10-31T01:47:42.435Z,16.40
2022-10-31T01:50:20.029Z,16.30
2022-10-31T01:52:48.235Z,16.30
2022-10-31T01:55:18.379Z,16.30
2022-10-31T01:57:46.719Z,16.30
2022-10-31T02:00:15.007Z,16.30
2022-10-31T02:02:44.125Z,16.30
2022-10-31T02:05:13.869Z,16.30
2022-10-31T02:07:44.014Z,16.30
2022-10-31T02:10:11.531Z,16.30
2022-10-31T02:12:39.049Z,16.30
2022-10-31T02:15:08.009Z,16.30
2022-10-31T02:17:35.454Z,16.30
2022-10-31T02:20:10.357Z,16.30
2022-10-31T02:22:41.940Z,16.30
2022-10-31T02:25:30.314Z,16.30
2022-10-31T02:31:02.050Z,16.30
2022-10-31T02:33:31.982Z,16.30
2022-10-31T02:36:04.185Z,16.30
2022-10-31T02:38:39.860Z,16.30
2022-10-31T02:41:12.659Z,16.30
2022-10-31T02:43:44.465Z,16.30
2022-10-31T02:46:16.159Z,16.30
2022-10-31T02:48:43.660Z,16.30
2022-10-31T02:51:11.244Z,16.30
2022-10-31T02:53:38.974Z,16.30
2022-10-31T02:56:08.383Z,16.30
2022-10-31T02:58:38.179Z,16.30
2022-10-31T03:01:41.945Z,16.30
2022-10-31T03:04:27.913Z,16.30
2022-10-31T03:06:57.852Z,16.30
2022-10-31T03:09:28.109Z,16.30
2022-10-31T03:11:59.294Z,16.30
2022-10-31T03:14:31.894Z,16.30
2022-10-31T03:17:01.378Z,16.30
2022-10-31T03:19:31.114Z,16.30
2022-10-31T03:22:00.669Z,16.30
2022-10-31T03:24:31.277Z,16.30
2022-10-31T03:26:59.873Z,16.30
2022-10-31T03:29:29.003Z,16.30
2022-10-31T03:31:58.800Z,16.30
2022-10-31T03:34:27.833Z,16.30
2022-10-31T03:36:57.091Z,16.30
2022-10-31T03:39:24.649Z,16.30
2022-10-31T03:41:56.217Z,16.30
2022-10-31T03:44:23.779Z,16.30
2022-10-31T03:46:51.297Z,16.30
2022-10-31T03:49:18.835Z,16.30
2022-10-31T03:51:51.004Z,16.30
2022-10-31T03:54:22.561Z,16.30
2022-10-31T03:56:52.371Z,16.30
2022-10-31T03:59:22.532Z,16.30
2022-10-31T04:01:52.154Z,16.30
2022-10-31T04:04:20.652Z,16.30
2022-10-31T04:06:49.682Z,16.30
2022-10-31T04:09:17.264Z,16.30
2022-10-31T04:11:46.989Z,16.30
2022-10-31T04:14:14.474Z,16.30
2022-10-31T04:16:43.454Z,16.30
2022-10-31T04:19:11.059Z,16.30
2022-10-31T04:21:38.758Z,16.30
2022-10-31T04:24:08.437Z,16.30
2022-10-31T04:26:35.966Z,16.30
2022-10-31T04:29:03.513Z,16.30
2022-10-31T04:31:31.012Z,16.30
2022-10-31T04:33:58.499Z,16.30
2022-10-31T04:36:26.106Z,16.30
2022-10-31T04:38:53.822Z,16.30
2022-10-31T04:41:22.856Z,16.30
2022-10-31T04:43:50.412Z,16.30
2022-10-31T04:46:17.912Z,16.30
2022-10-31T04:48:45.443Z,16.30
2022-10-31T04:51:13.005Z,16.30
2022-10-31T04:53:40.626Z,16.30
2022-10-31T04:56:08.479Z,16.30
2022-10-31T04:58:37.476Z,16.30
2022-10-31T05:01:05.196Z,16.30
2022-10-31T05:03:32.716Z,16.30
2022-10-31T05:06:00.258Z,16.30
2022-10-31T05:08:27.821Z,16.30
2022-10-31T05:10:56.588Z,16.30
2022-10-31T05:13:25.092Z,16.30
2022-10-31T05:15:54.136Z,16.30
2022-10-31T05:18:21.657Z,16.30
2022-10-31T05:20:49.325Z,16.30
2022-10-31T05:23:16.919Z,16.30
2022-10-31T05:25:44.402Z,16.30
2022-10-31T05:28:11.979Z,16.30
2022-10-31T05:30:39.606Z,16.30
2022-10-31T05:33:08.330Z,16.30
2022-10-31T05:35:35.911Z,16.30
2022-10-31T05:38:03.512Z,16.30
2022-10-31T05:40:31.153Z,16.30
2022-10-31T05:42:59.005Z,16.30
2022-10-31T05:45:27.025Z,16.30
2022-10-31T05:47:54.766Z,16.30
2022-10-31T05:50:23.930Z,16.30
2022-10-31T05:52:56.111Z,16.30
2022-10-31T05:55:23.677Z,16.30
2022-10-31T05:57:51.239Z,16.30
2022-10-31T06:00:19.144Z,16.30
2022-10-31T06:02:46.740Z,16.30
2022-10-31T06:05:14.400Z,16.30
2022-10-31T06:07:43.565Z,16.30
2022-10-31T06:10:11.222Z,16.30
2022-10-31T06:12:38.865Z,16.30
2022-10-31T06:15:07.322Z,16.30
2022-10-31T06:17:34.846Z,16.30
2022-10-31T06:20:02.336Z,16.30
2022-10-31T06:22:30.001Z,16.30
2022-10-31T06:24:59.033Z,16.30
2022-10-31T06:27:26.586Z,16.30
2022-10-31T06:29:54.162Z,16.30
2022-10-31T06:32:21.776Z,16.30
2022-10-31T06:34:49.238Z,16.30
2022-10-31T06:37:16.842Z,16.30
2022-10-31T06:39:44.433Z,16.30
2022-10-31T06:42:13.478Z,16.30
2022-10-31T06:44:40.965Z,16.30
2022-10-31T06:47:08.463Z,16.30
2022-10-31T06:49:36.024Z,16.30
2022-10-31T06:52:03.784Z,16.30
2022-10-31T06:54:31.353Z,16.30
2022-10-31T06:56:58.939Z,16.30
2022-10-31T06:59:28.167Z,16.30
2022-10-31T07:01:55.844Z,16.30
2022-10-31T07:04:23.650Z,16.30
2022-10-31T07:06:52.445Z,16.30
2022-10-31T07:09:20.029Z,16.30
2022-10-31T07:11:47.615Z,16.30
2022-10-31T07:14:15.211Z,16.30
2022-10-31T07:16:44.263Z,16.30
2022-10-31T07:19:11.899Z,16.30
2022-10-31T07:21:39.475Z,16.30
2022-10-31T07:24:07.283Z,16.30
2022-10-31T07:26:34.911Z,16.30
2022-10-31T07:29:02.585Z,16.30
2022-10-31T07:31:30.132Z,16.30
2022-10-31T07:33:59.146Z,16.30
2022-10-31T07:36:26.761Z,16.30
2022-10-31T07:38:54.227Z,16.30
2022-10-31T07:41:22.673Z,16.30
2022-10-31T07:43:50.291Z,16.40
2022-10-31T07:46:17.970Z,16.30
2022-10-31T07:48:45.523Z,16.30
2022-10-31T07:51:14.559Z,16.30
2022-10-31T07:53:42.250Z,16.40
2022-10-31T07:56:09.807Z,16.30
2022-10-31T07:58:37.307Z,16.30
2022-10-31T08:01:05.060Z,16.40
2022-10-31T08:03:32.819Z,16.40
2022-10-31T08:06:00.422Z,16.40
2022-10-31T08:08:32.246Z,16.40
2022-10-31T08:11:02.354Z,16.40
2022-10-31T08:13:29.922Z,16.40
2022-10-31T08:15:59.015Z,16.40
2022-10-31T08:18:26.551Z,16.40
2022-10-31T08:20:55.173Z,16.40
2022-10-31T08:23:22.760Z,16.40
2022-10-31T08:25:51.779Z,16.40
2022-10-31T08:28:19.331Z,16.40
2022-10-31T08:30:46.994Z,16.40
2022-10-31T08:33:16.617Z,16.40
2022-10-31T08:35:44.146Z,16.40
2022-10-31T08:38:12.342Z,16.40
2022-10-31T08:40:40.156Z,16.40
2022-10-31T08:43:12.493Z,16.40
2022-10-31T08:45:40.032Z,16.40
2022-10-31T08:48:10.337Z,16.50
2022-10-31T08:50:38.003Z,16.50
2022-10-31T08:53:06.579Z,16.40
2022-10-31T08:55:35.058Z,16.40
2022-10-31T08:58:02.888Z,16.50
2022-10-31T09:00:32.342Z,16.50
2022-10-31T09:03:00.480Z,16.50
2022-10-31T09:05:28.077Z,16.50
2022-10-31T09:07:57.388Z,16.50
2022-10-31T09:10:25.108Z,16.50
2022-10-31T09:12:56.806Z,16.50
2022-10-31T09:15:24.432Z,16.50
2022-10-31T09:17:53.600Z,16.50
2022-10-31T09:20:21.855Z,16.50
2022-10-31T09:22:49.340Z,16.50
2022-10-31T09:25:16.979Z,16.50
2022-10-31T09:27:44.599Z,16.50
2022-10-31T09:30:12.868Z,16.50
2022-10-31T09:32:40.383Z,16.50
2022-10-31T09:35:10.016Z,16.50
2022-10-31T09:37:37.587Z,16.50
2022-10-31T09:40:05.984Z,16.50
2022-10-31T09:42:46.503Z,16.50
2022-10-31T09:45:17.234Z,16.50
2022-10-31T09:47:55.874Z,16.50
2022-10-31T09:50:27.242Z,16.50
2022-10-31T09:52:59.143Z,16.50
2022-10-31T09:55:30.992Z,16.50
2022-10-31T09:57:59.278Z,16.50
2022-10-31T10:00:26.899Z,16.50
2022-10-31T10:02:57.964Z,16.50
2022-10-31T10:05:29.483Z,16.50
2022-10-31T10:08:12.619Z,16.50
2022-10-31T10:10:46.419Z,16.50
2022-10-31T10:13:25.457Z,16.50
2022-10-31T10:16:07.300Z,16.50
2022-10-31T10:18:42.880Z,16.50
2022-10-31T10:21:21.747Z,16.50
2022-10-31T10:23:59.857Z,16.50
2022-10-31T10:29:03.899Z,16.50
2022-10-31T10:31:34.248Z,16.50
2022-10-31T10:34:03.985Z,16.50
2022-10-31T10:36:38.002Z,16.50
2022-10-31T10:39:09.944Z,16.50
2022-10-31T10:41:37.540Z,16.50
2022-10-31T10:44:09.077Z,16.50
2022-10-31T10:46:45.001Z,16.60
2022-10-31T10:49:17.594Z,16.60
2022-10-31T10:55:00.545Z,16.50
2022-10-31T10:57:47.630Z,16.60
2022-10-31T11:00:20.608Z,16.60
2022-10-31T11:02:49.177Z,16.50
2022-10-31T11:05:23.625Z,16.50
2022-10-31T11:07:52.221Z,16.60
2022-10-31T11:10:19.773Z,16.50
2022-10-31T11:12:58.826Z,16.50
2022-10-31T11:15:26.798Z,16.50
2022-10-31T11:17:56.042Z,16.60
2022-10-31T11:20:33.724Z,16.60
2022-10-31T11:23:06.376Z,16.60
2022-10-31T11:25:34.505Z,16.60
2022-10-31T11:28:02.645Z,16.60
2022-10-31T11:30:30.178Z,16.60
2022-10-31T11:32:59.402Z,16.60
2022-10-31T11:35:27.385Z,16.60
2022-10-31T11:37:55.675Z,16.60
2022-10-31T11:40:26.332Z,16.70
2022-10-31T11:42:55.675Z,16.70
2022-10-31T11:45:30.768Z,16.60
2022-10-31T11:48:00.130Z,16.70
2022-10-31T11:50:30.936Z,16.70
2022-10-31T11:52:58.461Z,16.70
2022-10-31T11:55:34.997Z,16.70
2022-10-31T11:58:03.176Z,16.70
2022-10-31T12:00:32.050Z,16.70
2022-10-31T12:03:15.408Z,16.70
2022-10-31T12:05:42.942Z,16.70
2022-10-31T12:08:10.637Z,16.70
2022-10-31T12:10:45.988Z,16.70
2022-10-31T12:13:22.002Z,16.70
2022-10-31T12:15:52.056Z,16.70
2022-10-31T12:18:37.619Z,16.70
2022-10-31T12:21:22.305Z,16.70
2022-10-31T12:23:57.271Z,16.70
2022-10-31T12:26:32.198Z,16.70
2022-10-31T12:29:08.262Z,16.70
2022-10-31T12:31:43.558Z,16.70
2022-10-31T12:34:32.268Z,16.70
2022-10-31T12:37:02.327Z,16.70
2022-10-31T12:39:36.217Z,16.70
2022-10-31T12:42:06.782Z,16.70
2022-10-31T12:45:10.653Z,16.70
2022-10-31T12:47:55.707Z,16.70
2022-10-31T12:50:36.221Z,16.70
2022-10-31T12:53:14.357Z,16.70
2022-10-31T12:55:52.153Z,16.70
2022-10-31T12:58:23.062Z,16.70
2022-10-31T13:00:52.611Z,16.70
2022-10-31T13:03:25.438Z,16.70
2022-10-31T13:05:54.972Z,16.80
2022-10-31T13:08:25.540Z,16.70
2022-10-31T13:13:38.781Z,16.70
2022-10-31T13:16:11.079Z,16.80
2022-10-31T13:18:41.654Z,16.70
2022-10-31T13:21:11.711Z,16.70
2022-10-31T13:23:55.278Z,16.70
2022-10-31T13:26:25.317Z,16.70
2022-10-31T13:28:58.919Z,16.70
2022-10-31T13:31:26.586Z,16.70
2022-10-31T13:33:56.019Z,16.70
2022-10-31T13:36:29.638Z,16.70
2022-10-31T13:38:58.860Z,16.80
2022-10-31T13:41:34.480Z,16.80
2022-10-31T13:44:06.005Z,16.80
2022-10-31T13:46:38.190Z,16.80
2022-10-31T13:49:05.754Z,16.80
2022-10-31T13:51:34.185Z,16.70
2022-10-31T13:54:02.511Z,16.70
2022-10-31T13:56:31.410Z,16.70
2022-10-31T13:59:04.100Z,16.70
2022-10-31T14:01:33.578Z,16.80
2022-10-31T14:04:12.279Z,16.80
2022-10-31T14:06:44.935Z,16.70
2022-10-31T14:09:25.037Z,16.70
2022-10-31T14:11:52.589Z,16.80
2022-10-31T14:14:20.365Z,16.70
2022-10-31T14:16:55.809Z,16.70
2022-10-31T14:19:23.612Z,16.70
2022-10-31T14:21:51.391Z,16.80
2022-10-31T14:24:36.993Z,16.80
2022-10-31T14:27:26.435Z,16.80
2022-10-31T14:29:54.031Z,16.70
2022-10-31T14:32:24.163Z,16.80
2022-10-31T14:34:56.137Z,16.70
2022-10-31T14:37:58.101Z,16.80
2022-10-31T14:40:29.116Z,16.80
2022-10-31T14:43:46.792Z,16.80
2022-10-31T14:46:18.721Z,16.70
2022-10-31T14:49:02.102Z,16.70
2022-10-31T14:51:34.509Z,16.70
2022-10-31T14:54:02.066Z,16.70
2022-10-31T14:56:31.957Z,16.70
2022-10-31T14:59:01.336Z,16.70
2022-10-31T15:01:31.243Z,16.70
2022-10-31T15:06:55.665Z,16.80
2022-10-31T15:09:25.015Z,16.70
2022-10-31T15:11:52.773Z,16.80
2022-10-31T15:14:24.337Z,16.80
2022-10-31T15:16:51.902Z,16.80
2022-10-31T15:19:24.551Z,16.80
2022-10-31T15:21:52.744Z,16.70
2022-10-31T15:24:20.353Z,16.80
2022-10-31T15:26:48.636Z,16.70
2022-10-31T15:29:17.419Z,16.70
2022-10-31T15:31:52.107Z,16.70
2022-10-31T15:34:26.520Z,16.70
2022-10-31T15:36:54.137Z,16.70
2022-10-31T15:39:21.642Z,16.70
2022-10-31T15:41:54.426Z,16.80
2022-10-31T15:44:25.159Z,16.70
2022-10-31T15:46:59.023Z,16.70
2022-10-31T15:49:33.140Z,16.70
2022-10-31T15:52:05.511Z,16.70
2022-10-31T15:54:33.048Z,16.60
2022-10-31T15:57:00.616Z,16.60
2022-10-31T15:59:28.439Z,16.60
2022-10-31T16:02:03.648Z,16.70
2022-10-31T16:04:33.018Z,16.70
2022-10-31T16:07:01.719Z,16.70
2022-10-31T16:09:29.326Z,16.70
2022-10-31T16:11:57.700Z,16.70
2022-10-31T16:14:26.723Z,16.70
2022-10-31T16:16:55.940Z,16.70
2022-10-31T16:19:24.281Z,16.70
2022-10-31T16:21:54.694Z,16.70
2022-10-31T16:24:26.280Z,16.70
2022-10-31T16:26:55.350Z,16.70
2022-10-31T16:29:33.537Z,16.70
2022-10-31T16:32:01.072Z,16.70
2022-10-31T16:34:28.694Z,16.70
2022-10-31T16:36:57.763Z,16.60
2022-10-31T16:39:25.358Z,16.70
2022-10-31T16:41:53.623Z,16.60
2022-10-31T16:44:23.327Z,16.70
2022-10-31T16:47:05.489Z,16.60
2022-10-31T16:49:33.012Z,16.60
2022-10-31T16:52:02.021Z,16.60
2022-10-31T16:54:29.784Z,16.60
2022-10-31T16:56:57.809Z,16.60
2022-10-31T16:59:25.335Z,16.60
2022-10-31T17:01:53.016Z,16.60
2022-10-31T17:04:20.815Z,16.60
2022-10-31T17:06:48.362Z,16.60
2022-10-31T17:09:17.310Z,16.60
2022-10-31T17:11:49.767Z,16.60
2022-10-31T17:14:17.670Z,16.60
2022-10-31T17:16:45.296Z,16.60
2022-10-31T17:19:13.057Z,16.60
2022-10-31T17:21:40.686Z,16.60
2022-10-31T17:24:09.393Z,16.60
2022-10-31T17:26:38.580Z,16.60
2022-10-31T17:29:06.147Z,16.60
2022-10-31T17:31:34.928Z,16.60
2022-10-31T17:34:03.714Z,16.60
2022-10-31T17:36:31.485Z,16.60
2022-10-31T17:38:59.025Z,16.50
2022-10-31T17:41:26.639Z,16.50
2022-10-31T17:43:57.269Z,16.50
2022-10-31T17:46:24.868Z,16.50
2022-10-31T17:48:52.495Z,16.50
2022-10-31T17:51:20.105Z,16.50
2022-10-31T17:53:47.592Z,16.50
2022-10-31T17:56:15.216Z,16.50
2022-10-31T17:58:42.774Z,16.50
2022-10-31T18:01:13.642Z,16.50
2022-10-31T18:03:41.575Z,16.50
2022-10-31T18:06:09.408Z,16.50
2022-10-31T18:08:38.450Z,16.50
2022-10-31T18:11:09.221Z,16.50
2022-10-31T18:13:36.873Z,16.50
2022-10-31T18:16:08.281Z,16.40
2022-10-31T18:18:37.353Z,16.50
2022-10-31T18:21:05.235Z,16.50
2022-10-31T18:23:32.871Z,16.50
2022-10-31T18:26:00.557Z,16.50
2022-10-31T18:28:28.106Z,16.50
2022-10-31T18:30:58.372Z,16.50
2022-10-31T18:33:26.107Z,16.50
2022-10-31T18:35:55.188Z,16.50
2022-10-31T18:38:22.779Z,16.50
2022-10-31T18:40:53.184Z,16.40
2022-10-31T18:43:20.755Z,16.50
2022-10-31T18:45:51.225Z,16.40
2022-10-31T18:48:21.618Z,16.50
2022-10-31T18:50:49.183Z,16.40
2022-10-31T18:53:18.264Z,16.40
2022-10-31T18:55:50.064Z,16.50
2022-10-31T18:58:18.029Z,16.50
2022-10-31T19:00:45.646Z,16.40
2022-10-31T19:03:13.420Z,16.50
2022-10-31T19:05:40.913Z,16.50
2022-10-31T19:08:08.469Z,16.40
2022-10-31T19:10:37.570Z,16.40
2022-10-31T19:13:05.281Z,16.50
2022-10-31T19:15:33.680Z,16.40
2022-10-31T19:18:01.261Z,16.40
2022-10-31T19:20:28.857Z,16.40
2022-10-31T19:22:56.436Z,16.40
2022-10-31T19:25:24.045Z,16.50
2022-10-31T19:27:53.042Z,16.50
2022-10-31T19:30:20.781Z,16.40
2022-10-31T19:32:48.292Z,16.40
2022-10-31T19:35:15.638Z,16.40
2022-10-31T19:37:43.232Z,16.50
2022-10-31T19:40:12.068Z,16.50
2022-10-31T19:42:39.848Z,16.50
2022-10-31T19:45:09.551Z,16.40
2022-10-31T19:47:37.034Z,16.50
2022-10-31T19:50:04.936Z,16.40
2022-10-31T19:52:34.683Z,16.50
2022-10-31T19:55:02.407Z,16.40
2022-10-31T19:57:56.119Z,16.40
2022-10-31T20:00:19.072Z,16.40
2022-10-31T20:02:46.614Z,16.40
2022-10-31T20:05:14.175Z,16.40
2022-10-31T20:07:41.805Z,16.30
2022-10-31T20:10:09.785Z,16.40
2022-10-31T20:12:37.319Z,16.40
2022-10-31T20:15:05.503Z,16.30
2022-10-31T20:17:34.443Z,16.30
2022-10-31T20:20:02.162Z,16.30
2022-10-31T20:22:29.843Z,16.30
2022-10-31T20:24:57.432Z,16.30
2022-10-31T20:27:25.053Z,16.30
2022-10-31T20:29:52.679Z,16.30
2022-10-31T20:32:20.263Z,16.30
2022-10-31T20:34:49.243Z,16.30
2022-10-31T20:37:16.931Z,16.20
2022-10-31T20:39:44.544Z,16.30
2022-10-31T20:42:12.119Z,16.30
2022-10-31T20:44:39.674Z,16.30
2022-10-31T20:47:07.271Z,16.30
2022-10-31T20:49:34.850Z,16.20
2022-10-31T20:52:03.891Z,16.20
2022-10-31T20:54:31.414Z,16.30
2022-10-31T20:56:58.974Z,16.30
2022-10-31T20:59:29.465Z,16.30
2022-10-31T21:01:57.356Z,16.30
2022-10-31T21:04:25.143Z,16.30
2022-10-31T21:06:52.775Z,16.30
2022-10-31T21:09:21.864Z,16.20
2022-10-31T21:11:49.501Z,16.20
2022-10-31T21:14:17.106Z,16.20
2022-10-31T21:16:44.649Z,16.30
2022-10-31T21:19:12.178Z,16.20
2022-10-31T21:21:39.672Z,16.20
2022-10-31T21:24:08.833Z,16.20
2022-10-31T21:26:39.115Z,16.20
2022-10-31T21:29:06.878Z,16.20
2022-10-31T21:31:35.469Z,16.20
2022-10-31T21:34:02.953Z,16.20
2022-10-31T21:36:30.469Z,16.20
2022-10-31T21:38:58.005Z,16.20
2022-10-31T21:41:25.696Z,16.20
2022-10-31T21:43:54.825Z,16.20
2022-10-31T21:46:23.197Z,16.20
2022-10-31T21:48:50.736Z,16.10
2022-10-31T21:51:19.517Z,16.10
2022-10-31T21:53:47.030Z,16.10
2022-10-31T21:56:14.607Z,16.10
2022-10-31T21:58:42.253Z,16.10
2022-10-31T22:01:11.322Z,16.20
2022-10-31T22:03:39.824Z,16.20
2022-10-31T22:06:08.558Z,16.10
2022-10-31T22:08:36.076Z,16.20
2022-10-31T22:11:03.759Z,16.20
2022-10-31T22:13:31.343Z,16.20
2022-10-31T22:16:01.223Z,16.20
2022-10-31T22:18:30.286Z,16.20
2022-10-31T22:21:02.134Z,16.20
2022-10-31T22:23:29.679Z,16.20
2022-10-31T22:25:57.259Z,16.10
2022-10-31T22:28:24.979Z,16.10
2022-10-31T22:30:52.531Z,16.10
2022-10-31T22:33:20.137Z,16.10
2022-10-31T22:35:49.210Z,16.10
2022-10-31T22:38:16.727Z,16.10
2022-10-31T22:40:44.205Z,16.20
2022-10-31T22:43:11.828Z,16.20
2022-10-31T22:45:39.398Z,16.20
2022-10-31T22:48:07.148Z,16.20
2022-10-31T22:50:35.179Z,16.20
2022-10-31T22:53:04.188Z,16.20
2022-10-31T22:55:31.733Z,16.20
2022-10-31T22:57:59.485Z,16.20
2022-10-31T23:00:27.432Z,16.20
2022-10-31T23:02:55.051Z,16.10
2022-10-31T23:05:22.564Z,16.10
2022-10-31T23:07:50.542Z,16.10
2022-10-31T23:10:19.544Z,16.10
2022-10-31T23:12:47.080Z,16.10
2022-10-31T23:15:14.656Z,16.10
2022-10-31T23:17:42.225Z,16.10
2022-10-31T23:20:10.164Z,16.10
2022-10-31T23:22:37.803Z,16.10
2022-10-31T23:25:05.818Z,16.10
2022-10-31T23:27:34.838Z,16.00
2022-10-31T23:30:02.383Z,16.00
2022-10-31T23:32:31.691Z,16.00
2022-10-31T23:35:00.260Z,16.00
2022-10-31T23:37:29.026Z,16.00
2022-10-31T23:39:57.217Z,16.00
2022-10-31T23:42:24.843Z,16.10
2022-10-31T23:44:53.852Z,16.00
2022-10-31T23:47:21.386Z,16.00
2022-10-31T23:49:49.036Z,16.00
2022-10-31T23:52:16.736Z,16.00
2022-10-31T23:54:44.403Z,16.00
2022-10-31T23:57:12.055Z,16.00
2022-10-31T23:59:39.650Z,16.00
